Boswell, Canada
Current Conditions -  °F | °C
As of 9:00 AM on Thursday 27 Nov 2014 (Local Time) from CYCG Reporting Station
Broken Clouds Broken Clouds  
Wind Chill: 36°   Ceiling: 3400
Heat Index: 36°   Visibility: 15mi
Dew Point: 36°   Wind: 3mph
Humidity: 100%   Direction: 170°S
Pressure: 29.85"   Gusts: NA
Location:  49.47°N, 116.77°W
Report Text: CYCG 271700Z 17003KT 100V180 15SM FEW003 SCT027 BKN034 02/02 A2985 RMK SF2SC2SC3 SLP126
Loading
Personal Weather Stations






























Interactive Weather Map New forecast layout! Learn more

10-Day Weather Forecast

Advertisements
Track Severe Weather on mobile